Blair, NE

12:52 AM CST on February 12, 2016 (GMT -0600)
Blair - Deerfield | | Change Station
CLOSE
Current Station
Personal Weather Station
Location: Blair, NE
Elevation: 1089 ft
Nearby Weather Stations

Elev 1089 ft 41.56 °N, 96.15 °W | Updated 2 minutes ago

Overcast
Overcast
21.2 °F
Feels Like 21 °F
N
2.2
Wind Variable Wind from North
Gusts 5.4 mph

Today
High -- | Low -- °F
--% Chance of Precip.
Yesterday
High -- | Low -- °F
Precip. -- in
Pressure 30.22 in
Visibility 10.0 miles
Clouds Scattered Clouds 1100 ft
Overcast 2200 ft
Windchill 21 °F
Dew Point 10 °F
Humidity 60%
Rainfall 0.00 in
Snow Depth Not available.
7:24 AM 5:53 PM
Waxing Crescent, 18% visible
METAR KBTA 120635Z AUTO 36006KT 10SM SCT011 OVC022 M05/M06 A3022 RMK AO2 T10501065
Pressure 30.22 in
Visibility 10.0 miles
Clouds Scattered Clouds 1100 ft
Overcast 2200 ft
Windchill 21 °F
Dew Point 10 °F
Humidity 60%
Rainfall 0.00 in
Snow Depth Not available.
7:24 AM 5:53 PM
Waxing Crescent, 18% visible
METAR KBTA 120635Z AUTO 36006KT 10SM SCT011 OVC022 M05/M06 A3022 RMK AO2 T10501065

10-Day Weather Forecast

Almanac

Astronomy

Feb. 12, 2016 Rise Set
Actual Time
Civil Twilight
Nautical Twilight
Astronomical Twilight
Moon
Length of Visible Light
Length of Day
Tomorrow will be .
, % of the Moon is Illuminated

Today's Extremes

State Highs State Lows

Community

WunderPhotos

Upload Photos

1,892,276 photos uploaded!

WunderBlog® & News

Nearby

Air Quality

  Air Quality AQ Index Pollutant
Not available.

Snow Depth

Station Depth Elevation

Earthquake Activity

City Distance Mag. Time & Date
Minimum magnitude displayed is 2.5.

Coastal Water Temperatures

Place Temperature

Stations

Nearby Weather Stations

Station Location Temp. Windchill Dew Point Humidity Wind Precip. Elev Updated Type
                   

Watches & Warnings

There are currently no watches in effect.